Time;durP1;ratioP1;P1;durP2;ratioP2;P2;SDS_P1;SDS_P2;PMS_P1;PMS_P2;Temp;Humidity;BMP_temperature;BMP_pressure;BME280_temperature;BME280_humidity;BME280_pressure;Samples;Min_cycle;Max_cycle;Signal;HPM_P1;HPM_P2
2023/08/15 00:00:36;;;;;;;4.15;3.03;;;20.80;99.90;20.90;100654.00;;;;4986885;27;103301;-64
2023/08/15 00:03:02;;;;;;;2.85;2.55;;;20.80;99.90;20.90;100639.00;;;;4980885;27;109300;-65
2023/08/15 00:05:27;;;;;;;4.93;2.90;;;20.80;99.90;20.90;100655.00;;;;4983562;28;112904;-66
2023/08/15 00:07:54;;;;;;;3.38;2.15;;;20.80;99.90;21.00;100628.00;;;;4982774;27;122452;-66
2023/08/15 00:10:20;;;;;;;2.50;2.17;;;20.80;99.90;20.90;100639.00;;;;4984283;27;93217;-66
2023/08/15 00:12:46;;;;;;;3.05;2.55;;;20.80;99.90;20.90;100651.00;;;;4982788;27;93356;-65
2023/08/15 00:15:12;;;;;;;2.35;2.10;;;20.80;99.90;20.90;100655.00;;;;4984420;27;94317;-65
2023/08/15 00:17:37;;;;;;;3.15;2.22;;;20.80;99.90;20.90;100655.00;;;;4981271;27;93588;-66
2023/08/15 00:20:04;;;;;;;2.65;2.45;;;20.80;99.90;20.90;100655.00;;;;4985310;27;92043;-65
2023/08/15 00:22:30;;;;;;;2.22;1.50;;;20.80;99.90;20.90;100653.00;;;;4982663;27;92930;-65
2023/08/15 00:24:56;;;;;;;2.17;1.70;;;20.80;99.90;20.90;100658.00;;;;4981355;27;121757;-65
2023/08/15 00:27:21;;;;;;;2.95;1.80;;;20.80;99.90;20.90;100649.00;;;;4982469;28;123018;-65
2023/08/15 00:29:47;;;;;;;3.88;1.90;;;20.80;99.90;20.90;100656.00;;;;4985324;28;110634;-64
2023/08/15 00:32:12;;;;;;;3.13;1.70;;;20.80;99.90;20.90;100659.00;;;;4981398;27;109035;-64
2023/08/15 00:34:38;;;;;;;3.40;1.98;;;20.70;99.90;20.90;100651.00;;;;4981780;27;122234;-63
2023/08/15 00:37:04;;;;;;;2.35;2.15;;;20.70;99.90;20.90;100647.00;;;;4981460;27;123422;-64
2023/08/15 00:39:30;;;;;;;2.05;1.45;;;20.70;99.90;20.80;100643.00;;;;4982727;27;92936;-65
2023/08/15 00:41:55;;;;;;;2.28;1.83;;;20.70;99.90;20.80;100640.00;;;;4986641;27;108447;-63
2023/08/15 00:44:21;;;;;;;1.52;1.33;;;20.70;99.90;20.80;100631.00;;;;4980634;27;122168;-65
2023/08/15 00:46:47;;;;;;;3.10;1.40;;;20.70;99.90;20.80;100627.00;;;;4981229;27;122003;-66
2023/08/15 00:49:13;;;;;;;2.45;2.08;;;20.70;99.90;20.80;100640.00;;;;4983495;27;109456;-65
2023/08/15 00:51:39;;;;;;;2.35;2.15;;;20.60;99.90;20.70;100638.00;;;;4983495;27;108900;-64
2023/08/15 00:54:06;;;;;;;2.38;1.85;;;20.60;99.90;20.60;100641.00;;;;4984877;28;123513;-63
2023/08/15 00:56:31;;;;;;;2.38;1.92;;;20.60;99.90;20.60;100652.00;;;;4982775;28;109551;-64
2023/08/15 00:58:57;;;;;;;2.15;1.75;;;20.50;99.90;20.50;100642.00;;;;4980154;27;110384;-64
2023/08/15 01:01:24;;;;;;;2.53;2.33;;;20.50;99.90;20.50;100644.00;;;;4979161;27;108483;-64
2023/08/15 01:03:51;;;;;;;2.83;2.38;;;20.40;99.90;20.40;100635.00;;;;4983637;27;93059;-64
2023/08/15 01:06:17;;;;;;;1.80;1.30;;;20.40;99.90;20.40;100625.00;;;;4981610;27;93788;-64
2023/08/15 01:08:43;;;;;;;4.90;2.05;;;20.30;99.90;20.30;100634.00;;;;4981912;27;110407;-64
2023/08/15 01:11:09;;;;;;;2.85;2.10;;;20.30;99.90;20.30;100636.00;;;;4980543;27;92759;-64
2023/08/15 01:13:59;;;;;;;3.00;2.63;;;20.20;99.90;20.20;100627.00;;;;4982721;27;103632;-64
2023/08/15 01:16:29;;;;;;;2.72;2.42;;;20.20;99.90;20.20;100621.00;;;;4987395;27;94884;-64
2023/08/15 01:19:18;;;;;;;2.95;2.47;;;20.10;99.90;20.10;100619.00;;;;4985736;27;93155;-64
2023/08/15 01:21:48;;;;;;;3.65;3.00;;;20.10;99.90;20.10;100613.00;;;;4986526;28;94399;-64
2023/08/15 01:24:15;;;;;;;3.05;2.75;;;20.00;99.90;20.00;100597.00;;;;4991429;27;93724;-65
2023/08/15 01:26:41;;;;;;;2.17;1.98;;;20.00;99.90;20.00;100604.00;;;;4978970;27;123061;-64
2023/08/15 01:29:07;;;;;;;2.85;2.45;;;19.90;99.90;20.00;100592.00;;;;4981371;27;111261;-65
2023/08/15 01:31:35;;;;;;;2.58;2.38;;;19.90;99.90;19.90;100590.00;;;;4981049;28;93959;-65
2023/08/15 01:34:10;;;;;;;2.55;2.35;;;19.90;99.90;19.90;100586.00;;;;4978833;27;93387;-64
2023/08/15 01:36:43;;;;;;;3.58;3.22;;;19.80;99.90;19.90;100586.00;;;;4982658;27;92941;-64
2023/08/15 01:39:13;;;;;;;4.18;3.28;;;19.80;99.90;19.90;100593.00;;;;4981908;28;100104;-64
2023/08/15 01:41:41;;;;;;;3.83;2.75;;;19.70;99.90;19.80;100596.00;;;;4983676;27;95134;-65
2023/08/15 01:44:09;;;;;;;3.10;2.83;;;19.70;99.90;19.80;100595.00;;;;4978480;28;123657;-64
2023/08/15 01:46:35;;;;;;;4.32;2.33;;;19.70;99.90;19.80;100598.00;;;;4979658;27;94042;-65
2023/08/15 01:49:01;;;;;;;4.32;3.13;;;19.70;99.90;19.80;100591.00;;;;4987961;27;110663;-64
2023/08/15 01:51:27;;;;;;;4.22;2.63;;;19.70;99.90;19.70;100580.00;;;;4983771;28;98881;-65
2023/08/15 01:53:55;;;;;;;4.53;3.75;;;19.60;99.90;19.70;100592.00;;;;4981016;27;123463;-64
2023/08/15 01:56:21;;;;;;;3.67;2.95;;;19.60;99.90;19.70;100591.00;;;;4980588;27;122308;-63
2023/08/15 01:58:47;;;;;;;3.85;3.30;;;19.60;99.90;19.70;100594.00;;;;4980672;27;103458;-64
2023/08/15 02:01:14;;;;;;;5.57;4.10;;;19.50;99.90;19.60;100583.00;;;;4980878;28;93267;-65
2023/08/15 02:03:40;;;;;;;4.07;3.67;;;19.50;99.90;19.60;100589.00;;;;4980566;28;93829;-65
2023/08/15 02:06:05;;;;;;;4.88;3.67;;;19.50;99.90;19.60;100583.00;;;;4979715;27;113919;-65
2023/08/15 02:08:31;;;;;;;5.93;3.45;;;19.50;99.90;19.60;100577.00;;;;4983842;27;93172;-65
2023/08/15 02:10:57;;;;;;;6.72;3.67;;;19.50;99.90;19.50;100577.00;;;;4980558;28;110566;-65
2023/08/15 02:13:22;;;;;;;4.97;4.43;;;19.40;99.90;19.50;100576.00;;;;4982541;28;93685;-65
2023/08/15 02:15:49;;;;;;;4.25;3.58;;;19.40;99.90;19.50;100577.00;;;;4982085;27;122271;-65
2023/08/15 02:18:15;;;;;;;4.82;4.25;;;19.40;99.90;19.50;100574.00;;;;4980299;27;100045;-64
2023/08/15 02:20:40;;;;;;;4.00;3.65;;;19.40;99.90;19.50;100573.00;;;;4982399;27;109055;-65
2023/08/15 02:23:06;;;;;;;4.20;3.75;;;19.40;99.90;19.50;100576.00;;;;4989920;27;93428;-65
2023/08/15 02:25:32;;;;;;;5.18;4.68;;;19.40;99.90;19.50;100576.00;;;;4984685;27;122067;-65
2023/08/15 02:27:57;;;;;;;4.55;3.35;;;19.40;99.90;19.50;100574.00;;;;4987107;27;110455;-65
2023/08/15 02:30:23;;;;;;;5.45;4.05;;;19.30;99.90;19.50;100574.00;;;;4985328;28;94160;-65
2023/08/15 02:32:49;;;;;;;4.38;3.95;;;19.40;99.90;19.50;100569.00;;;;4988168;27;93993;-64
2023/08/15 02:35:15;;;;;;;5.00;4.53;;;19.30;99.90;19.50;100569.00;;;;4985375;28;93424;-65
2023/08/15 02:37:40;;;;;;;4.40;3.88;;;19.30;99.90;19.50;100560.00;;;;4986593;27;92934;-65
2023/08/15 02:40:08;;;;;;;5.00;4.40;;;19.30;99.90;19.50;100561.00;;;;4983856;27;109532;-65
2023/08/15 02:42:34;;;;;;;6.30;4.70;;;19.30;99.90;19.50;100559.00;;;;4988731;27;93983;-65
2023/08/15 02:45:00;;;;;;;6.80;4.22;;;19.30;99.90;19.40;100557.00;;;;4987172;27;118508;-65
2023/08/15 02:47:26;;;;;;;4.88;3.92;;;19.30;99.90;19.50;100553.00;;;;4987966;27;92126;-65
2023/08/15 02:49:52;;;;;;;4.75;3.92;;;19.30;99.90;19.40;100548.00;;;;4985087;27;108325;-66
2023/08/15 02:52:17;;;;;;;5.07;4.47;;;19.30;99.90;19.40;100548.00;;;;4989775;27;122880;-64
2023/08/15 02:54:43;;;;;;;6.55;5.43;;;19.30;99.90;19.40;100550.00;;;;4986397;27;93922;-65
2023/08/15 02:57:09;;;;;;;4.57;3.88;;;19.30;99.90;19.40;100547.00;;;;4987678;27;109199;-65
2023/08/15 02:59:34;;;;;;;5.32;4.55;;;19.30;99.90;19.40;100550.00;;;;4988280;27;106622;-64
2023/08/15 03:02:00;;;;;;;5.18;3.97;;;19.30;99.90;19.40;100550.00;;;;4985329;27;121992;-64
2023/08/15 03:04:25;;;;;;;7.40;4.55;;;19.30;99.90;19.40;100550.00;;;;4989315;27;122407;-64
2023/08/15 03:06:54;;;;;;;5.68;3.78;;;19.30;99.90;19.40;100545.00;;;;4986769;27;110557;-64
2023/08/15 03:09:21;;;;;;;4.22;3.83;;;19.30;99.90;19.40;100550.00;;;;4984527;27;93193;-64
2023/08/15 03:11:46;;;;;;;3.88;3.50;;;19.30;99.90;19.40;100547.00;;;;4990612;27;122522;-64
2023/08/15 03:14:12;;;;;;;6.35;4.38;;;19.30;99.90;19.40;100558.00;;;;4984271;27;120360;-64
2023/08/15 03:16:37;;;;;;;5.50;3.78;;;19.30;99.90;19.30;100549.00;;;;4985930;27;110434;-64
2023/08/15 03:19:03;;;;;;;9.60;5.32;;;19.20;99.90;19.30;100550.00;;;;4986365;27;108277;-66
2023/08/15 03:21:30;;;;;;;4.47;4.07;;;19.20;99.90;19.30;100557.00;;;;4987186;27;122607;-64
2023/08/15 03:23:56;;;;;;;6.40;3.92;;;19.20;99.90;19.30;100550.00;;;;4989071;27;92792;-63
2023/08/15 03:26:22;;;;;;;6.32;4.88;;;19.20;99.90;19.30;100544.00;;;;4987534;27;109045;-64
2023/08/15 03:28:48;;;;;;;4.82;3.92;;;19.20;99.90;19.30;100550.00;;;;4987891;27;92941;-63
2023/08/15 03:31:13;;;;;;;5.53;4.25;;;19.20;99.90;19.30;100537.00;;;;4986638;27;93172;-63
2023/08/15 03:33:39;;;;;;;5.90;3.58;;;19.20;99.90;19.30;100549.00;;;;4985773;27;93677;-63
2023/08/15 03:36:05;;;;;;;5.45;3.38;;;19.20;99.90;19.30;100532.00;;;;4986525;27;92201;-65
2023/08/15 03:38:31;;;;;;;5.15;3.97;;;19.20;99.90;19.30;100542.00;;;;4987239;27;92749;-65
2023/08/15 03:41:05;;;;;;;5.35;4.10;;;19.20;99.90;19.30;100549.00;;;;4982443;27;122101;-64
2023/08/15 03:43:31;;;;;;;5.85;4.18;;;19.20;99.90;19.30;100540.00;;;;4988804;27;113792;-64
2023/08/15 03:45:58;;;;;;;5.30;4.70;;;19.20;99.90;19.30;100551.00;;;;4985082;27;92881;-65
2023/08/15 03:48:24;;;;;;;5.90;4.95;;;19.20;99.90;19.30;100542.00;;;;4984507;27;93036;-65
2023/08/15 03:50:54;;;;;;;4.20;3.80;;;19.20;99.90;19.30;100555.00;;;;4984553;27;113011;-64
2023/08/15 03:53:20;;;;;;;6.30;4.20;;;19.20;99.90;19.30;100559.00;;;;4985969;27;93905;-64
2023/08/15 03:55:49;;;;;;;4.72;3.63;;;19.20;99.90;19.30;100550.00;;;;4981278;28;109248;-65
2023/08/15 03:58:19;;;;;;;6.78;4.60;;;19.20;99.90;19.30;100560.00;;;;4986734;27;92966;-64
2023/08/15 04:00:45;;;;;;;4.22;3.83;;;19.20;99.90;19.30;100555.00;;;;4984695;27;93133;-65
2023/08/15 04:03:11;;;;;;;4.75;3.90;;;19.20;99.90;19.30;100552.00;;;;4983111;27;105793;-64
2023/08/15 04:05:37;;;;;;;4.43;4.03;;;19.20;99.90;19.30;100562.00;;;;4984937;27;92925;-64
2023/08/15 04:08:03;;;;;;;4.43;4.00;;;19.20;99.90;19.30;100561.00;;;;4986525;27;94028;-64
2023/08/15 04:10:29;;;;;;;3.33;2.60;;;19.20;99.90;19.30;100561.00;;;;4984885;28;110187;-64
2023/08/15 04:12:58;;;;;;;6.07;4.00;;;19.20;99.90;19.30;100563.00;;;;4984910;27;93702;-64
2023/08/15 04:15:23;;;;;;;6.03;4.38;;;19.20;99.90;19.30;100554.00;;;;4984142;27;110480;-64
2023/08/15 04:17:49;;;;;;;3.65;3.35;;;19.20;99.90;19.30;100565.00;;;;4984921;27;92843;-64
2023/08/15 04:20:15;;;;;;;4.25;3.50;;;19.20;99.90;19.30;100555.00;;;;4985549;27;94089;-64
2023/08/15 04:22:41;;;;;;;7.00;4.75;;;19.20;99.90;19.30;100557.00;;;;4983282;27;93493;-63
2023/08/15 04:25:09;;;;;;;6.97;5.40;;;19.20;99.90;19.30;100557.00;;;;4983364;27;93082;-64
2023/08/15 04:27:38;;;;;;;6.70;4.78;;;19.20;99.90;19.40;100557.00;;;;4983187;27;92806;-64
2023/08/15 04:30:08;;;;;;;6.03;5.18;;;19.30;99.90;19.40;100555.00;;;;4983327;27;121700;-64
2023/08/15 04:32:34;;;;;;;6.07;4.57;;;19.30;99.90;19.40;100552.00;;;;4981687;27;93656;-64
2023/08/15 04:34:59;;;;;;;6.43;4.82;;;19.30;99.90;19.50;100554.00;;;;4983932;27;93027;-64
2023/08/15 04:37:25;;;;;;;6.28;4.95;;;19.30;99.90;19.50;100559.00;;;;4983129;27;92728;-63
2023/08/15 04:39:51;;;;;;;6.70;5.43;;;19.40;99.90;19.50;100570.00;;;;4984754;27;121853;-63
2023/08/15 04:42:16;;;;;;;5.25;4.20;;;19.50;99.90;19.60;100567.00;;;;4983070;27;122577;-63
2023/08/15 04:44:42;;;;;;;4.93;4.50;;;19.50;99.90;19.70;100554.00;;;;4986149;27;93112;-63
2023/08/15 04:47:08;;;;;;;5.43;4.22;;;19.50;99.90;19.70;100550.00;;;;4982714;28;107731;-64
2023/08/15 04:49:33;;;;;;;5.18;3.88;;;19.60;99.90;19.80;100558.00;;;;4981906;27;121382;-65
2023/08/15 04:52:00;;;;;;;6.40;4.70;;;19.70;99.90;19.80;100559.00;;;;4986185;27;121696;-64
2023/08/15 04:54:26;;;;;;;4.25;3.40;;;19.70;99.90;19.90;100564.00;;;;4984819;27;92975;-63
2023/08/15 04:56:52;;;;;;;4.57;3.75;;;19.80;99.90;20.00;100568.00;;;;4982929;27;99547;-63
2023/08/15 04:59:18;;;;;;;5.43;4.18;;;19.90;99.90;20.00;100564.00;;;;4980426;27;111643;-64
2023/08/15 05:01:45;;;;;;;5.15;4.20;;;19.90;99.90;20.10;100568.00;;;;4980751;27;94266;-64
2023/08/15 05:04:13;;;;;;;4.10;3.80;;;20.00;99.90;20.20;100565.00;;;;4983958;27;101581;-64
2023/08/15 05:06:39;;;;;;;3.25;2.83;;;20.10;99.90;20.40;100563.00;;;;4981773;27;113757;-65
2023/08/15 05:09:05;;;;;;;3.85;3.20;;;20.20;99.90;20.50;100564.00;;;;4980882;27;123267;-65
2023/08/15 05:11:31;;;;;;;4.60;3.78;;;20.30;99.90;20.60;100568.00;;;;4982306;27;121927;-64
2023/08/15 05:14:00;;;;;;;5.45;3.53;;;20.40;99.90;20.70;100567.00;;;;4982562;27;110495;-65
2023/08/15 05:16:25;;;;;;;3.30;2.97;;;20.60;99.90;20.90;100569.00;;;;4982693;27;93028;-65
2023/08/15 05:18:51;;;;;;;4.03;3.38;;;20.70;99.90;21.00;100575.00;;;;4981774;27;104206;-65
2023/08/15 05:21:17;;;;;;;3.92;2.90;;;20.90;99.90;21.10;100570.00;;;;4978334;27;122526;-65
2023/08/15 05:23:43;;;;;;;4.70;2.92;;;21.00;99.90;21.20;100573.00;;;;4979168;28;93170;-65
2023/08/15 05:26:09;;;;;;;5.40;3.97;;;21.10;99.90;21.40;100570.00;;;;4977452;27;108786;-65
2023/08/15 05:28:35;;;;;;;3.40;2.33;;;21.20;99.90;21.50;100572.00;;;;4980851;27;123716;-65
2023/08/15 05:31:00;;;;;;;3.22;2.88;;;21.30;99.90;21.60;100568.00;;;;4976861;27;120818;-66
2023/08/15 05:33:26;;;;;;;4.80;3.22;;;21.40;99.90;21.70;100567.00;;;;4977209;27;110000;-66
2023/08/15 05:35:52;;;;;;;3.75;3.45;;;21.60;99.90;21.90;100570.00;;;;4976704;28;94692;-65
2023/08/15 05:38:27;;;;;;;3.88;2.70;;;21.70;99.90;22.00;100576.00;;;;4977226;28;121562;-65
2023/08/15 05:40:52;;;;;;;3.20;2.97;;;21.90;99.90;22.20;100570.00;;;;4977217;28;121775;-65
2023/08/15 05:43:18;;;;;;;5.47;3.05;;;22.00;99.90;22.30;100574.00;;;;4977217;28;104641;-66
2023/08/15 05:45:48;;;;;;;3.63;2.75;;;22.20;99.90;22.50;100581.00;;;;4979134;27;106200;-66
2023/08/15 05:48:13;;;;;;;3.25;2.88;;;22.30;99.90;22.60;100586.00;;;;4979433;27;93445;-66
2023/08/15 05:50:39;;;;;;;5.63;3.42;;;22.40;99.90;22.80;100578.00;;;;4977986;27;122388;-65
2023/08/15 05:53:05;;;;;;;4.60;3.40;;;22.60;99.90;22.90;100580.00;;;;4975426;27;109577;-65
2023/08/15 05:55:33;;;;;;;3.30;3.00;;;22.80;99.90;23.10;100580.00;;;;4976351;28;109071;-65
2023/08/15 05:57:59;;;;;;;2.60;2.40;;;22.90;99.90;23.30;100580.00;;;;4977317;27;122466;-67
2023/08/15 06:00:24;;;;;;;3.40;3.03;;;23.10;99.90;23.50;100583.00;;;;4976606;27;121335;-66
2023/08/15 06:02:50;;;;;;;2.90;2.70;;;23.30;99.90;23.70;100576.00;;;;4982025;27;111055;-66
2023/08/15 06:05:16;;;;;;;2.70;2.50;;;23.50;99.90;23.80;100579.00;;;;4979350;27;107231;-67
2023/08/15 06:07:41;;;;;;;3.85;3.47;;;23.60;99.90;23.90;100577.00;;;;4974125;27;122439;-66
2023/08/15 06:10:08;;;;;;;3.80;3.10;;;23.80;99.90;24.00;100577.00;;;;4976091;27;94023;-66
2023/08/15 06:12:34;;;;;;;3.65;3.20;;;23.90;99.90;24.20;100568.00;;;;4980190;27;93322;-66
2023/08/15 06:15:00;;;;;;;5.78;3.50;;;24.00;99.90;24.30;100566.00;;;;4978307;27;107944;-66
2023/08/15 06:17:25;;;;;;;4.07;2.45;;;24.20;99.90;24.40;100562.00;;;;4977628;27;96109;-65
2023/08/15 06:19:51;;;;;;;3.33;2.33;;;24.30;99.90;24.50;100569.00;;;;4980715;27;120954;-66
2023/08/15 06:22:17;;;;;;;5.32;2.53;;;24.40;99.90;24.60;100563.00;;;;4981349;27;93528;-66
2023/08/15 06:24:42;;;;;;;2.70;2.50;;;24.50;99.90;24.70;100562.00;;;;4982570;27;93333;-66
2023/08/15 06:27:08;;;;;;;3.00;2.75;;;24.60;99.90;24.80;100559.00;;;;4978937;27;121725;-67
2023/08/15 06:29:33;;;;;;;3.42;3.00;;;24.70;99.90;24.90;100560.00;;;;4977389;27;121384;-66
2023/08/15 06:31:59;;;;;;;3.22;2.90;;;24.80;99.90;25.00;100558.00;;;;4979823;27;111765;-66
2023/08/15 06:34:25;;;;;;;3.10;2.80;;;24.90;99.90;25.10;100565.00;;;;4977998;27;94107;-66
2023/08/15 06:36:51;;;;;;;4.85;2.90;;;25.00;99.90;25.30;100565.00;;;;4977594;27;123451;-66
2023/08/15 06:39:16;;;;;;;4.45;2.63;;;25.20;99.90;25.40;100570.00;;;;4977207;27;122249;-66
2023/08/15 06:41:42;;;;;;;2.97;2.67;;;25.30;99.90;25.60;100572.00;;;;4980028;27;111625;-66
2023/08/15 06:44:14;;;;;;;2.80;2.58;;;25.40;99.90;25.70;100575.00;;;;4979881;27;93382;-66
2023/08/15 06:46:39;;;;;;;3.63;2.25;;;25.60;99.90;25.90;100574.00;;;;4978867;27;93405;-67
2023/08/15 06:49:05;;;;;;;2.58;2.35;;;25.80;99.90;26.10;100576.00;;;;4977961;27;120327;-66
2023/08/15 06:51:31;;;;;;;2.67;2.47;;;26.00;99.90;26.30;100582.00;;;;4979109;27;110158;-66
2023/08/15 06:53:56;;;;;;;4.15;1.77;;;26.20;99.90;26.50;100573.00;;;;4977924;27;108461;-66
2023/08/15 06:56:22;;;;;;;2.05;1.85;;;26.30;99.90;26.60;100574.00;;;;4978453;27;122129;-66
2023/08/15 06:58:48;;;;;;;2.28;2.10;;;26.40;99.90;26.70;100577.00;;;;4976489;27;123106;-66
2023/08/15 07:01:13;;;;;;;3.85;2.67;;;26.50;99.90;26.90;100572.00;;;;4978135;27;97488;-66
2023/08/15 07:03:39;;;;;;;3.15;2.85;;;26.70;99.90;27.00;100568.00;;;;4980280;27;93190;-66
2023/08/15 07:06:05;;;;;;;2.20;1.85;;;26.80;99.90;27.20;100567.00;;;;4981518;27;122368;-66
2023/08/15 07:08:32;;;;;;;3.40;2.33;;;27.00;99.90;27.40;100565.00;;;;4983302;27;121686;-66
2023/08/15 07:10:58;;;;;;;1.77;1.67;;;27.20;99.90;27.70;100562.00;;;;4984689;27;110735;-67
2023/08/15 07:13:24;;;;;;;3.45;2.05;;;27.40;99.90;28.00;100568.00;;;;4985105;27;93012;-66
2023/08/15 07:15:57;;;;;;;2.40;1.60;;;27.70;99.90;28.20;100558.00;;;;4985121;27;91938;-66
2023/08/15 07:18:23;;;;;;;4.18;1.77;;;27.90;99.80;28.40;100571.00;;;;4981473;27;93399;-64
2023/08/15 07:20:51;;;;;;;9.35;2.22;;;28.10;98.90;28.50;100571.00;;;;4981158;27;104106;-65
2023/08/15 07:23:17;;;;;;;3.75;2.55;;;28.30;97.20;28.70;100571.00;;;;4978541;28;94056;-65
2023/08/15 07:25:43;;;;;;;2.58;2.15;;;28.40;96.20;28.90;100576.00;;;;4981271;27;113620;-65
2023/08/15 07:28:09;;;;;;;4.18;1.85;;;28.60;96.50;29.10;100580.00;;;;4980279;27;93806;-65
2023/08/15 07:30:36;;;;;;;2.42;2.00;;;28.80;96.40;29.30;100589.00;;;;4982159;27;92883;-65
2023/08/15 07:33:02;;;;;;;2.17;1.98;;;29.00;94.30;29.40;100587.00;;;;4982372;27;93030;-65
2023/08/15 07:35:28;;;;;;;2.75;1.98;;;29.10;92.10;29.40;100603.00;;;;4980968;27;93974;-65
2023/08/15 07:37:54;;;;;;;2.30;2.10;;;29.10;92.30;29.50;100597.00;;;;4981118;27;122604;-64
2023/08/15 07:40:22;;;;;;;2.97;2.08;;;29.20;91.20;29.50;100595.00;;;;4981504;27;110306;-64
2023/08/15 07:42:53;;;;;;;2.58;2.00;;;29.30;91.30;29.70;100594.00;;;;4981675;27;109235;-65
2023/08/15 07:45:19;;;;;;;2.00;1.90;;;29.40;90.40;29.80;100598.00;;;;4981138;27;92754;-65
2023/08/15 07:47:48;;;;;;;2.40;1.88;;;29.50;87.70;29.90;100602.00;;;;4980190;28;96875;-64
2023/08/15 07:50:18;;;;;;;2.67;1.67;;;29.60;85.50;29.90;100603.00;;;;4981827;27;92884;-65
2023/08/15 07:52:44;;;;;;;2.92;1.80;;;29.70;83.90;30.10;100601.00;;;;4984748;27;93205;-65
2023/08/15 07:55:11;;;;;;;1.17;1.08;;;29.80;86.30;30.40;100599.00;;;;4979458;28;122790;-66
2023/08/15 07:57:37;;;;;;;1.50;1.40;;;30.00;86.50;30.60;100598.00;;;;4980812;28;93194;-67
2023/08/15 08:00:04;;;;;;;1.90;1.52;;;30.30;81.80;30.70;100597.00;;;;4981026;27;93075;-68
2023/08/15 08:02:30;;;;;;;8.98;1.55;;;30.40;79.10;30.80;100593.00;;;;4980830;27;93055;-68
2023/08/15 08:04:55;;;;;;;2.60;1.80;;;30.50;79.30;31.00;100593.00;;;;4977981;27;94981;-68
2023/08/15 08:07:21;;;;;;;2.17;1.60;;;30.60;77.20;31.10;100595.00;;;;4978887;27;121967;-69
2023/08/15 08:09:47;;;;;;;1.80;1.50;;;30.70;75.60;31.20;100595.00;;;;4979725;27;92972;-69
2023/08/15 08:12:12;;;;;;;2.25;1.95;;;30.90;75.60;31.40;100601.00;;;;4979422;27;108146;-68
2023/08/15 08:14:38;;;;;;;2.40;1.90;;;31.00;73.20;31.50;100603.00;;;;4981892;27;121292;-70
2023/08/15 08:17:04;;;;;;;6.07;2.05;;;31.20;73.20;31.60;100606.00;;;;4979401;27;93063;-70
2023/08/15 08:19:30;;;;;;;3.50;1.60;;;31.30;69.90;31.70;100612.00;;;;4979256;27;110019;-68
2023/08/15 08:21:56;;;;;;;1.60;1.50;;;30.80;69.50;31.90;100610.00;;;;4978392;27;110520;-69
2023/08/15 08:24:21;;;;;;;1.95;1.75;;;31.50;70.80;32.30;100605.00;;;;4977621;27;122508;-67
2023/08/15 08:26:47;;;;;;;1.73;1.50;;;31.80;67.50;32.40;100614.00;;;;4979532;27;93416;-67
2023/08/15 08:29:13;;;;;;;2.35;1.73;;;31.90;67.30;32.50;100612.00;;;;4979981;27;92325;-67
2023/08/15 08:31:39;;;;;;;1.50;1.40;;;32.10;66.00;32.60;100608.00;;;;4980115;27;93394;-68
2023/08/15 08:34:13;;;;;;;3.13;2.10;;;32.20;64.70;32.70;100624.00;;;;4977719;27;94155;-68
2023/08/15 08:36:43;;;;;;;3.15;2.38;;;32.30;63.20;32.70;100631.00;;;;4982026;27;93942;-68
2023/08/15 08:39:11;;;;;;;2.50;1.80;;;32.40;62.20;32.80;100640.00;;;;4981937;27;108625;-68
2023/08/15 08:41:37;;;;;;;1.92;1.77;;;32.40;62.60;32.90;100650.00;;;;4981635;27;92829;-68
2023/08/15 08:44:04;;;;;;;2.70;1.98;;;32.50;62.30;33.10;100648.00;;;;4977028;27;104214;-68
2023/08/15 08:46:30;;;;;;;4.63;1.98;;;32.70;62.00;33.20;100638.00;;;;4978154;27;115849;-68
2023/08/15 08:49:00;;;;;;;1.55;1.45;;;32.80;61.60;33.30;100638.00;;;;4982363;28;93095;-67
2023/08/15 08:51:27;;;;;;;2.67;1.80;;;33.00;61.10;33.30;100644.00;;;;4977820;27;93156;-68
2023/08/15 08:53:54;;;;;;;2.30;1.70;;;33.00;59.80;33.20;100642.00;;;;4981558;27;92927;-68
2023/08/15 08:56:25;;;;;;;1.52;1.23;;;32.80;60.00;33.20;100630.00;;;;4979044;28;93123;-70
2023/08/15 08:59:01;;;;;;;3.38;2.00;;;32.80;59.60;33.30;100640.00;;;;4980464;27;92822;-69
2023/08/15 09:01:31;;;;;;;2.65;1.70;;;32.90;59.80;33.40;100644.00;;;;4979903;27;93991;-69
2023/08/15 09:03:57;;;;;;;2.72;1.67;;;33.00;58.80;33.50;100637.00;;;;4978816;27;102747;-69
2023/08/15 09:06:26;;;;;;;1.90;1.40;;;33.10;58.50;33.60;100642.00;;;;4982446;27;101562;-68
2023/08/15 09:08:52;;;;;;;3.85;1.55;;;33.20;58.90;33.80;100649.00;;;;4980751;27;92850;-69
2023/08/15 09:11:18;;;;;;;3.03;2.03;;;33.30;58.60;33.90;100645.00;;;;4979730;28;101805;-69
2023/08/15 09:13:50;;;;;;;3.70;1.45;;;33.40;57.90;34.00;100652.00;;;;4979194;27;122612;-69
2023/08/15 09:16:16;;;;;;;2.58;1.90;;;33.60;57.50;34.20;100641.00;;;;4980830;27;121298;-70
2023/08/15 09:18:42;;;;;;;1.48;1.38;;;33.70;57.20;34.40;100647.00;;;;4980846;27;111204;-70
2023/08/15 09:21:11;;;;;;;2.38;1.63;;;33.80;57.60;34.40;100641.00;;;;4980955;27;92875;-69
2023/08/15 09:23:41;;;;;;;3.38;1.88;;;34.00;56.20;34.40;100642.00;;;;4977779;27;94344;-68
2023/08/15 09:26:14;;;;;;;2.95;2.22;;;34.00;56.30;34.40;100631.00;;;;4978323;27;93988;-70
2023/08/15 09:28:45;;;;;;;2.78;1.85;;;34.00;55.60;34.40;100629.00;;;;4979251;27;92781;-69
2023/08/15 09:31:11;;;;;;;2.22;1.52;;;34.00;56.00;34.50;100628.00;;;;4978665;27;93258;-69
2023/08/15 09:33:38;;;;;;;3.58;2.38;;;34.10;56.30;34.60;100630.00;;;;4979355;27;100810;-69
2023/08/15 09:36:08;;;;;;;4.45;2.33;;;34.20;56.00;34.70;100631.00;;;;4975017;27;92965;-69
2023/08/15 09:38:40;;;;;;;3.50;1.40;;;34.30;55.40;34.80;100622.00;;;;4980868;28;93299;-69
2023/08/15 09:41:09;;;;;;;2.78;1.30;;;34.30;53.70;34.70;100617.00;;;;4980160;28;107073;-69
2023/08/15 09:43:35;;;;;;;4.35;1.80;;;34.30;53.90;34.70;100610.00;;;;4981035;27;92082;-68
2023/08/15 09:46:02;;;;;;;2.45;2.00;;;34.30;54.70;34.80;100612.00;;;;4976457;27;119636;-69
2023/08/15 09:48:28;;;;;;;4.55;1.40;;;34.40;54.70;35.10;100610.00;;;;4980159;27;92838;-69
2023/08/15 09:50:56;;;;;;;2.95;2.22;;;34.50;54.50;35.20;100615.00;;;;4978439;27;94251;-69
2023/08/15 09:53:25;;;;;;;1.73;1.58;;;34.70;53.80;35.30;100620.00;;;;4981514;27;93253;-69
2023/08/15 09:55:51;;;;;;;1.77;1.65;;;34.70;53.50;35.30;100615.00;;;;4979359;27;93764;-69
2023/08/15 09:58:23;;;;;;;1.90;1.65;;;34.80;52.80;35.30;100624.00;;;;4979428;27;92868;-69
2023/08/15 10:00:51;;;;;;;1.80;1.42;;;34.70;53.30;35.50;100636.00;;;;4977602;27;108388;-68
2023/08/15 10:03:24;;;;;;;1.73;1.60;;;34.90;53.20;35.60;100639.00;;;;4980597;27;93860;-69
2023/08/15 10:05:57;;;;;;;1.70;1.60;;;35.00;52.80;35.70;100640.00;;;;4982726;27;92989;-69
2023/08/15 10:08:24;;;;;;;1.95;1.77;;;35.10;52.80;35.80;100635.00;;;;4977500;27;110073;-70
2023/08/15 10:10:52;;;;;;;2.20;2.08;;;35.30;52.40;36.00;100631.00;;;;4977730;27;107898;-69
2023/08/15 10:13:25;;;;;;;4.15;1.75;;;35.40;53.00;36.30;100625.00;;;;4977746;27;93566;-69
2023/08/15 10:15:52;;;;;;;1.60;1.50;;;35.60;51.90;36.50;100624.00;;;;4984063;27;93973;-69
2023/08/15 10:18:18;;;;;;;2.63;1.55;;;35.80;52.00;36.70;100620.00;;;;4977116;27;99524;-69
2023/08/15 10:20:51;;;;;;;3.05;1.65;;;35.90;51.90;37.00;100618.00;;;;4982348;27;109536;-69
2023/08/15 10:23:26;;;;;;;2.80;2.08;;;36.10;52.10;37.50;100626.00;;;;4977976;27;93024;-70
2023/08/15 10:25:53;;;;;;;1.92;1.60;;;36.60;52.00;37.80;100624.00;;;;4976689;27;115072;-71
2023/08/15 10:28:19;;;;;;;1.90;1.80;;;37.00;50.30;37.90;100619.00;;;;4978026;27;93065;-71
2023/08/15 10:30:47;;;;;;;2.70;1.75;;;37.10;49.70;38.20;100623.00;;;;4979097;27;92921;-69
2023/08/15 10:33:15;;;;;;;2.35;2.15;;;37.30;50.30;38.50;100622.00;;;;4977052;27;93511;-69
2023/08/15 10:35:51;;;;;;;3.05;1.95;;;37.60;49.90;38.80;100624.00;;;;4978981;27;92854;-69
2023/08/15 10:38:23;;;;;;;2.20;1.75;;;37.90;49.50;39.00;100623.00;;;;4978853;27;92953;-71
2023/08/15 10:40:52;;;;;;;2.03;1.85;;;38.10;49.10;39.20;100611.00;;;;4972469;27;99893;-70